createdAt,value
2016-08-11T00:00:38.688Z,0
2016-08-11T00:01:38.654Z,0
2016-08-11T00:02:37.927Z,0
2016-08-11T00:03:37.901Z,0
2016-08-11T00:04:37.152Z,0
2016-08-11T00:05:37.820Z,0
2016-08-11T00:06:38.472Z,0
2016-08-11T00:07:38.443Z,0
2016-08-11T00:08:37.708Z,0
2016-08-11T00:09:38.370Z,0
2016-08-11T00:10:38.333Z,0
2016-08-11T00:11:38.309Z,0
2016-08-11T00:12:38.270Z,0
2016-08-11T00:13:37.559Z,0
2016-08-11T00:14:38.210Z,0
2016-08-11T00:15:38.163Z,0
2016-08-11T00:16:37.433Z,0
2016-08-11T00:17:38.094Z,0
2016-08-11T00:18:37.373Z,0
2016-08-11T00:20:37.289Z,0
2016-08-11T00:21:37.952Z,0
2016-08-11T00:22:37.224Z,0
2016-08-11T00:23:37.184Z,0
2016-08-11T00:24:37.163Z,0
2016-08-11T00:25:37.814Z,0
2016-08-11T00:26:37.783Z,0
2016-08-11T00:27:37.747Z,0
2016-08-11T00:28:36.320Z,0
2016-08-11T00:29:37.671Z,0
2016-08-11T00:30:37.639Z,0
2016-08-11T00:31:36.915Z,0
2016-08-11T00:32:35.485Z,0
2016-08-11T00:33:36.151Z,0
2016-08-11T00:34:37.511Z,0
2016-08-11T00:35:37.471Z,0
2016-08-11T00:36:36.766Z,0
2016-08-11T00:37:37.400Z,0
2016-08-11T00:38:37.358Z,0
2016-08-11T00:39:36.639Z,0
2016-08-11T00:40:37.308Z,0
2016-08-11T00:41:37.263Z,0
2016-08-11T00:42:37.231Z,0
2016-08-11T00:43:35.562Z,0
2016-08-11T00:44:37.154Z,0
2016-08-11T00:45:36.423Z,0
2016-08-11T00:46:37.094Z,0
2016-08-11T00:47:36.351Z,0
2016-08-11T00:48:36.319Z,0
2016-08-11T00:49:36.983Z,0
2016-08-11T00:50:36.948Z,0
2016-08-11T00:51:35.527Z,0
2016-08-11T00:52:36.879Z,0
2016-08-11T00:53:36.152Z,0
2016-08-11T00:54:36.111Z,0
2016-08-11T00:55:36.074Z,0
2016-08-11T00:56:36.739Z,0
2016-08-11T00:57:36.007Z,0
2016-08-11T00:58:36.203Z,0
2016-08-11T00:59:36.635Z,0
2016-08-11T01:00:35.906Z,0
2016-08-11T01:01:36.561Z,0
2016-08-11T01:02:36.531Z,0
2016-08-11T01:03:36.496Z,0
2016-08-11T01:04:36.462Z,0
2016-08-11T01:05:35.746Z,0
2016-08-11T01:06:36.400Z,0
2016-08-11T01:07:36.356Z,0
2016-08-11T01:08:35.626Z,0
2016-08-11T01:09:36.290Z,0
2016-08-11T01:10:36.256Z,0
2016-08-11T01:11:36.213Z,0
2016-08-11T01:12:35.487Z,0
2016-08-11T01:13:35.684Z,0
2016-08-11T01:14:36.114Z,0
2016-08-11T01:15:35.381Z,0
2016-08-11T01:16:36.040Z,0
2016-08-11T01:17:36.011Z,0
2016-08-11T01:18:35.276Z,0
2016-08-11T01:19:35.948Z,0
2016-08-11T01:20:35.909Z,0
2016-08-11T01:21:35.870Z,0
2016-08-11T01:22:35.839Z,0
2016-08-11T01:23:35.830Z,0
2016-08-11T01:24:35.067Z,0
2016-08-11T01:25:35.732Z,0
2016-08-11T01:26:35.698Z,0
2016-08-11T01:27:35.659Z,0
2016-08-11T01:28:33.995Z,0
2016-08-11T01:29:34.890Z,0
2016-08-11T01:30:34.861Z,0
2016-08-11T01:31:35.527Z,0
2016-08-11T01:32:34.099Z,0
2016-08-11T01:33:35.451Z,0
2016-08-11T01:34:35.419Z,0
2016-08-11T01:35:35.390Z,0
2016-08-11T01:36:35.354Z,0
2016-08-11T01:37:34.619Z,0
2016-08-11T01:38:35.278Z,0
2016-08-11T01:39:35.247Z,0
2016-08-11T01:40:34.523Z,0
2016-08-11T01:41:35.191Z,0
2016-08-11T01:42:35.134Z,0
2016-08-11T01:44:35.069Z,0
2016-08-11T01:45:35.044Z,0
2016-08-11T01:46:34.994Z,0
2016-08-11T01:47:34.964Z,0
2016-08-11T01:48:34.936Z,0
2016-08-11T01:49:34.197Z,0
2016-08-11T01:50:34.173Z,0
2016-08-11T01:51:34.840Z,0
2016-08-11T01:52:33.399Z,0
2016-08-11T01:53:34.065Z,0
2016-08-11T01:54:34.728Z,0
2016-08-11T01:55:34.691Z,0
2016-08-11T01:56:34.653Z,0
2016-08-11T01:57:34.620Z,0
2016-08-11T01:59:34.552Z,0
2016-08-11T02:00:34.515Z,0
2016-08-11T02:01:33.090Z,0
2016-08-11T02:02:33.753Z,0
2016-08-11T02:03:33.024Z,0
2016-08-11T02:04:34.382Z,0
2016-08-11T02:05:34.335Z,0
2016-08-11T02:06:34.306Z,0
2016-08-11T02:07:32.875Z,0
2016-08-11T02:08:32.843Z,0
2016-08-11T02:09:33.505Z,0
2016-08-11T02:10:34.181Z,0
2016-08-11T02:11:34.125Z,0
2016-08-11T02:12:34.093Z,0
2016-08-11T02:14:34.027Z,0
2016-08-11T02:15:32.598Z,0
2016-08-11T02:16:33.264Z,0
2016-08-11T02:17:33.224Z,0
2016-08-11T02:18:33.185Z,0
2016-08-11T02:19:33.158Z,0
2016-08-11T02:20:33.815Z,0
2016-08-11T02:21:32.399Z,0
2016-08-11T02:22:33.746Z,0
2016-08-11T02:23:33.715Z,0
2016-08-11T02:24:33.676Z,0
2016-08-11T02:25:33.647Z,0
2016-08-11T02:26:33.614Z,0
2016-08-11T02:27:33.588Z,0
2016-08-11T02:28:33.554Z,0
2016-08-11T02:29:33.522Z,0
2016-08-11T02:30:33.471Z,0
2016-08-11T02:31:33.432Z,0
2016-08-11T02:32:33.399Z,0
2016-08-11T02:33:33.371Z,0
2016-08-11T02:34:32.644Z,0
2016-08-11T02:35:33.344Z,0
2016-08-11T02:36:33.263Z,0
2016-08-11T02:37:32.553Z,0
2016-08-11T02:38:32.501Z,0
2016-08-11T02:39:33.167Z,0
2016-08-11T02:40:33.124Z,0
2016-08-11T02:41:33.087Z,0
2016-08-11T02:42:33.054Z,0
2016-08-11T02:43:33.017Z,0
2016-08-11T02:44:32.286Z,0
2016-08-11T02:45:32.248Z,0
2016-08-11T02:46:32.225Z,0
2016-08-11T02:47:32.186Z,0
2016-08-11T02:48:32.150Z,0
2016-08-11T02:49:32.807Z,0
2016-08-11T02:50:31.381Z,0
2016-08-11T02:51:32.747Z,0
2016-08-11T02:52:32.716Z,0
2016-08-11T02:53:32.664Z,0
2016-08-11T02:54:32.630Z,0
2016-08-11T02:55:31.210Z,0
2016-08-11T02:56:32.578Z,0
2016-08-11T02:57:32.527Z,0
2016-08-11T02:58:31.804Z,0
2016-08-11T02:59:32.463Z,0
2016-08-11T03:00:31.726Z,0
2016-08-11T03:01:32.391Z,0
2016-08-11T03:02:31.657Z,0
2016-08-11T03:03:32.326Z,0
2016-08-11T03:04:32.289Z,0
2016-08-11T03:05:31.556Z,0
2016-08-11T03:06:30.122Z,0
2016-08-11T03:07:32.185Z,0
2016-08-11T03:08:30.761Z,0
2016-08-11T03:09:31.420Z,0
2016-08-11T03:10:30.684Z,0
2016-08-11T03:11:32.040Z,0
2016-08-11T03:12:31.308Z,0
2016-08-11T03:13:31.273Z,0
2016-08-11T03:14:31.240Z,0
2016-08-11T03:15:31.903Z,0
2016-08-11T03:16:31.870Z,0
2016-08-11T03:17:31.139Z,0
2016-08-11T03:18:31.101Z,0
2016-08-11T03:19:31.759Z,0
2016-08-11T03:20:31.725Z,0
2016-08-11T03:21:30.316Z,0
2016-08-11T03:22:30.961Z,0
2016-08-11T03:23:31.619Z,0
2016-08-11T03:24:30.892Z,0
2016-08-11T03:25:30.852Z,0
2016-08-11T03:26:30.822Z,0
2016-08-11T03:27:31.488Z,0
2016-08-11T03:28:31.447Z,0
2016-08-11T03:29:30.713Z,0
2016-08-11T03:30:30.676Z,0
2016-08-11T03:31:31.338Z,0
2016-08-11T03:32:30.618Z,0
2016-08-11T03:33:31.271Z,0
2016-08-11T03:34:31.241Z,0
2016-08-11T03:35:31.197Z,0
2016-08-11T03:36:31.176Z,0
2016-08-11T03:37:31.133Z,0
2016-08-11T03:38:31.103Z,0
2016-08-11T03:39:30.363Z,0
2016-08-11T03:40:30.334Z,0
2016-08-11T03:41:30.986Z,4
2016-08-11T03:42:30.258Z,0
2016-08-11T03:43:30.227Z,4
2016-08-11T03:44:30.895Z,4
2016-08-11T03:45:30.154Z,4
2016-08-11T03:46:30.116Z,8
2016-08-11T03:47:30.779Z,8
2016-08-11T03:48:30.745Z,8
2016-08-11T03:49:30.009Z,8
2016-08-11T03:50:29.282Z,8
2016-08-11T03:51:30.642Z,12
2016-08-11T03:52:30.610Z,12
2016-08-11T03:53:30.565Z,20
2016-08-11T03:54:30.539Z,20
2016-08-11T03:55:29.814Z,24
2016-08-11T03:56:30.458Z,28
2016-08-11T03:57:29.733Z,36
2016-08-11T03:58:29.693Z,40
2016-08-11T03:59:30.354Z,44
2016-08-11T04:00:28.941Z,52
2016-08-11T04:01:30.283Z,56
2016-08-11T04:02:29.552Z,64
2016-08-11T04:03:29.521Z,80
2016-08-11T04:04:30.193Z,84
2016-08-11T04:05:29.445Z,100
2016-08-11T04:06:28.715Z,112
2016-08-11T04:07:30.076Z,124
2016-08-11T04:08:30.043Z,140
2016-08-11T04:09:29.306Z,156
2016-08-11T04:10:29.983Z,172
2016-08-11T04:11:29.247Z,184
2016-08-11T04:12:29.904Z,196
2016-08-11T04:13:29.860Z,212
2016-08-11T04:14:29.832Z,224
2016-08-11T04:15:29.795Z,236
2016-08-11T04:16:29.756Z,252
2016-08-11T04:17:29.030Z,268
2016-08-11T04:18:29.688Z,284
2016-08-11T04:19:28.955Z,300
2016-08-11T04:20:29.614Z,320
2016-08-11T04:21:28.882Z,336
2016-08-11T04:22:28.157Z,360
2016-08-11T04:23:28.811Z,388
2016-08-11T04:24:29.473Z,420
2016-08-11T04:25:28.741Z,456
2016-08-11T04:26:29.402Z,492
2016-08-11T04:27:29.365Z,536
2016-08-11T04:28:27.933Z,576
2016-08-11T04:29:28.596Z,620
2016-08-11T04:30:29.284Z,652
2016-08-11T04:31:28.524Z,672
2016-08-11T04:32:27.101Z,684
2016-08-11T04:33:29.154Z,704
2016-08-11T04:34:29.119Z,740
2016-08-11T04:35:29.081Z,776
2016-08-11T04:36:28.355Z,804
2016-08-11T04:37:29.023Z,836
2016-08-11T04:38:27.591Z,872
2016-08-11T04:39:28.939Z,924
2016-08-11T04:40:28.915Z,984
2016-08-11T04:41:28.183Z,1056
2016-08-11T04:42:28.143Z,1132
2016-08-11T04:43:28.103Z,1200
2016-08-11T04:44:28.770Z,1276
2016-08-11T04:45:28.729Z,1344
2016-08-11T04:46:28.702Z,1408
2016-08-11T04:47:28.677Z,1472
2016-08-11T04:48:28.628Z,1528
2016-08-11T04:49:27.903Z,1588
2016-08-11T04:50:28.553Z,1660
2016-08-11T04:51:28.519Z,1740
2016-08-11T04:52:27.091Z,1828
2016-08-11T04:53:28.456Z,1956
2016-08-11T04:54:28.426Z,2092
2016-08-11T04:55:28.380Z,2232
2016-08-11T04:56:28.938Z,2344
2016-08-11T04:57:28.309Z,2424
2016-08-11T04:58:27.578Z,2528
2016-08-11T04:59:28.236Z,2624
2016-08-11T05:00:28.202Z,2684
2016-08-11T05:01:28.164Z,2720
2016-08-11T05:02:28.132Z,2776
2016-08-11T05:03:28.091Z,2828
2016-08-11T05:04:26.670Z,2876
2016-08-11T05:05:28.024Z,2912
2016-08-11T05:06:27.304Z,2932
2016-08-11T05:07:27.953Z,2936
2016-08-11T05:08:27.913Z,2932
2016-08-11T05:09:27.888Z,2976
2016-08-11T05:10:27.852Z,3068
2016-08-11T05:11:27.128Z,3240
2016-08-11T05:12:27.076Z,3428
2016-08-11T05:13:26.348Z,3572
2016-08-11T05:14:27.706Z,3588
2016-08-11T05:15:27.679Z,3508
2016-08-11T05:16:27.635Z,3448
2016-08-11T05:17:27.605Z,3420
2016-08-11T05:18:27.571Z,3364
2016-08-11T05:19:27.545Z,3288
2016-08-11T05:20:27.492Z,3228
2016-08-11T05:21:27.460Z,3188
2016-08-11T05:22:27.422Z,3200
2016-08-11T05:23:26.700Z,3296
2016-08-11T05:24:27.369Z,3476
2016-08-11T05:25:27.319Z,3688
2016-08-11T05:26:26.599Z,3896
2016-08-11T05:27:27.245Z,4168
2016-08-11T05:28:27.209Z,4504
2016-08-11T05:29:27.185Z,4828
2016-08-11T05:30:27.146Z,4960
2016-08-11T05:31:26.427Z,4852
2016-08-11T05:32:26.372Z,4836
2016-08-11T05:33:27.041Z,4968
2016-08-11T05:34:27.002Z,5204
2016-08-11T05:35:26.963Z,5524
2016-08-11T05:36:26.242Z,5908
2016-08-11T05:37:26.200Z,6364
2016-08-11T05:38:26.860Z,6924
2016-08-11T05:39:26.824Z,7588
2016-08-11T05:40:26.786Z,8252
2016-08-11T05:41:26.758Z,8720
2016-08-11T05:42:26.719Z,9024
2016-08-11T05:43:26.685Z,9220
2016-08-11T05:44:25.954Z,9436
2016-08-11T05:45:25.922Z,9744
2016-08-11T05:46:25.886Z,10096
2016-08-11T05:47:26.543Z,10480
2016-08-11T05:48:25.813Z,10832
2016-08-11T05:49:26.478Z,11104
2016-08-11T05:50:26.456Z,11200
2016-08-11T05:51:26.406Z,11192
2016-08-11T05:52:26.379Z,11144
2016-08-11T05:53:25.643Z,11040
2016-08-11T05:54:26.334Z,11044
2016-08-11T05:55:26.267Z,11392
2016-08-11T05:56:26.250Z,11276
2016-08-11T05:57:26.218Z,11424
2016-08-11T05:58:25.470Z,11872
2016-08-11T05:59:24.981Z,13368
2016-08-11T06:00:26.107Z,13080
2016-08-11T06:01:25.367Z,27520
2016-08-11T06:02:26.033Z,17248
2016-08-11T06:03:26.001Z,22912
2016-08-11T06:04:25.264Z,42176
2016-08-11T06:05:25.935Z,39264
2016-08-11T06:06:24.516Z,48192
2016-08-11T06:07:25.865Z,48320
2016-08-11T06:08:25.825Z,48960
2016-08-11T06:09:25.107Z,50400
2016-08-11T06:10:25.773Z,49920
2016-08-11T06:11:25.042Z,49792
2016-08-11T06:12:24.321Z,50720
2016-08-11T06:13:25.674Z,51648
2016-08-11T06:15:25.610Z,52800
2016-08-11T06:16:25.596Z,52224
2016-08-11T06:17:25.581Z,50752
2016-08-11T06:18:24.835Z,47392
2016-08-11T06:19:25.497Z,44448
2016-08-11T06:20:25.470Z,47776
2016-08-11T06:21:24.050Z,53920
2016-08-11T06:22:24.712Z,55872
2016-08-11T06:23:25.385Z,55776
2016-08-11T06:24:25.359Z,57120
2016-08-11T06:25:24.642Z,59168
2016-08-11T06:26:25.320Z,59008
2016-08-11T06:27:25.279Z,58112
2016-08-11T06:28:25.255Z,56800
2016-08-11T06:29:23.842Z,57280
2016-08-11T06:30:25.201Z,59264
2016-08-11T06:31:24.494Z,60736
2016-08-11T06:32:25.154Z,61824
2016-08-11T06:33:24.437Z,61216
2016-08-11T06:34:25.110Z,60928
2016-08-11T06:35:24.389Z,62528
2016-08-11T06:36:25.867Z,65760
2016-08-11T06:37:25.042Z,64864
2016-08-11T06:38:24.309Z,62688
2016-08-11T06:39:24.291Z,61952
2016-08-11T06:40:24.965Z,63712
2016-08-11T06:41:24.937Z,64128
2016-08-11T06:42:22.823Z,63744
2016-08-11T06:43:24.888Z,63008
2016-08-11T06:44:23.260Z,63264
2016-08-11T06:45:24.844Z,67296
2016-08-11T06:46:24.125Z,68928
2016-08-11T06:47:23.413Z,68704
2016-08-11T06:48:24.780Z,70240
2016-08-11T06:49:24.770Z,69760
2016-08-11T06:50:24.735Z,70368
2016-08-11T06:51:24.018Z,70720
2016-08-11T06:52:24.710Z,71776
2016-08-11T06:53:24.672Z,70304
2016-08-11T06:54:23.951Z,70432
2016-08-11T06:55:24.624Z,73856
2016-08-11T06:56:22.510Z,73376
2016-08-11T06:57:23.189Z,73536
2016-08-11T06:58:23.868Z,76224
2016-08-11T07:00:24.524Z,73184
2016-08-11T07:01:23.103Z,76160
2016-08-11T07:02:24.479Z,80352
2016-08-11T07:03:23.061Z,79488
2016-08-11T07:04:24.453Z,76704
2016-08-11T07:05:24.420Z,76032
2016-08-11T07:06:24.388Z,82560
2016-08-11T07:07:23.677Z,83584
2016-08-11T07:08:22.957Z,74304
2016-08-11T07:09:23.627Z,70336
2016-08-11T07:10:24.307Z,71616
2016-08-11T07:11:24.286Z,72960
2016-08-11T07:12:24.262Z,73408
2016-08-11T07:13:24.238Z,76608
2016-08-11T07:15:22.812Z,83584
2016-08-11T07:16:22.789Z,82304
2016-08-11T07:17:24.161Z,82976
2016-08-11T07:18:24.135Z,84576
2016-08-11T07:19:23.420Z,86880
2016-08-11T07:20:22.704Z,85280
2016-08-11T07:21:24.075Z,83392
2016-08-11T07:22:24.053Z,81824
2016-08-11T07:23:23.333Z,80768
2016-08-11T07:24:24.017Z,82784
2016-08-11T07:25:23.290Z,83904
2016-08-11T07:26:22.580Z,84768
2016-08-11T07:27:21.854Z,89760
2016-08-11T07:28:23.931Z,92224
2016-08-11T07:30:23.883Z,88384
2016-08-11T07:31:23.868Z,87712
2016-08-11T07:32:22.450Z,88544
2016-08-11T07:33:23.138Z,88704
2016-08-11T07:34:23.810Z,89920
2016-08-11T07:35:23.784Z,90464
2016-08-11T07:36:23.759Z,92064
2016-08-11T07:37:23.757Z,90528
2016-08-11T07:38:23.719Z,89376
2016-08-11T07:39:23.709Z,91296
2016-08-11T07:40:23.677Z,92768
2016-08-11T07:41:23.662Z,92608
2016-08-11T07:42:22.963Z,93472
2016-08-11T07:43:23.624Z,96704
2016-08-11T07:45:22.892Z,93888
2016-08-11T07:46:23.568Z,92992
2016-08-11T07:47:23.544Z,96512
2016-08-11T07:48:23.533Z,20384
2016-08-11T07:49:23.515Z,19936
2016-08-11T07:50:22.796Z,18272
2016-08-11T07:51:23.471Z,17424
2016-08-11T07:52:23.445Z,17548
2016-08-11T07:53:23.429Z,17748
2016-08-11T07:54:22.756Z,19168
2016-08-11T07:55:23.391Z,25344
2016-08-11T07:56:23.463Z,22240
2016-08-11T07:57:23.344Z,21280
2016-08-11T07:58:22.634Z,17752
2016-08-11T08:00:23.308Z,24576
2016-08-11T08:01:23.265Z,33056
2016-08-11T08:02:22.545Z,95968
2016-08-11T08:03:23.226Z,89408
2016-08-11T08:04:23.209Z,98016
2016-08-11T08:05:22.641Z,101888
2016-08-11T08:06:23.151Z,102048
2016-08-11T08:07:22.426Z,104576
2016-08-11T08:08:22.408Z,109984
2016-08-11T08:09:22.397Z,103136
2016-08-11T08:10:23.058Z,96032
2016-08-11T08:11:22.342Z,99232
2016-08-11T08:12:23.009Z,105600
2016-08-11T08:13:22.295Z,102272
2016-08-11T08:14:20.876Z,103360
2016-08-11T08:15:22.279Z,104032
2016-08-11T08:16:22.231Z,102688
2016-08-11T08:17:22.214Z,107040
2016-08-11T08:18:22.897Z,105504
2016-08-11T08:19:22.882Z,101568
2016-08-11T08:20:22.154Z,107520
2016-08-11T08:21:22.138Z,120640
2016-08-11T08:22:22.115Z,126240
2016-08-11T08:23:21.395Z,129408
2016-08-11T08:24:22.070Z,137216
2016-08-11T08:25:22.057Z,142528
2016-08-11T08:26:22.039Z,136768
2016-08-11T08:27:22.016Z,127840
2016-08-11T08:28:21.995Z,123072
2016-08-11T08:29:21.283Z,122400
2016-08-11T08:30:22.657Z,120704
2016-08-11T08:31:22.639Z,102304
2016-08-11T08:32:21.926Z,64128
2016-08-11T08:33:21.212Z,37824
2016-08-11T08:34:21.199Z,36256
2016-08-11T08:35:21.879Z,36640
2016-08-11T08:36:21.857Z,35808
2016-08-11T08:37:21.843Z,35360
2016-08-11T08:38:22.525Z,34848
2016-08-11T08:39:22.509Z,35360
2016-08-11T08:40:21.792Z,35840
2016-08-11T08:41:21.771Z,37152
2016-08-11T08:42:22.461Z,37952
2016-08-11T08:43:21.740Z,38624
2016-08-11T08:44:22.420Z,38752
2016-08-11T08:45:22.407Z,38048
2016-08-11T08:46:21.700Z,39232
2016-08-11T08:47:22.394Z,40032
2016-08-11T08:48:21.679Z,40000
2016-08-11T08:49:21.649Z,40736
2016-08-11T08:50:21.644Z,41120
2016-08-11T08:51:21.632Z,40800
2016-08-11T08:52:22.307Z,40800
2016-08-11T08:53:21.593Z,42112
2016-08-11T08:54:22.288Z,49120
2016-08-11T08:55:21.559Z,77600
2016-08-11T08:56:21.538Z,20928
2016-08-11T08:57:20.143Z,19776
2016-08-11T08:58:22.224Z,17792
2016-08-11T08:59:21.505Z,27520
2016-08-11T09:00:22.182Z,72000
2016-08-11T09:01:21.466Z,127168
2016-08-11T09:02:20.765Z,165632
2016-08-11T09:03:22.146Z,201248
2016-08-11T09:04:21.427Z,191424
2016-08-11T09:05:22.098Z,139776
2016-08-11T09:06:22.086Z,91520
2016-08-11T09:07:22.069Z,71392
2016-08-11T09:08:22.054Z,65152
2016-08-11T09:09:22.040Z,63296
2016-08-11T09:10:21.325Z,60832
2016-08-11T09:11:22.008Z,59136
2016-08-11T09:12:22.002Z,56800
2016-08-11T09:13:21.282Z,57568
2016-08-11T09:14:21.959Z,61152
2016-08-11T09:15:21.253Z,62976
2016-08-11T09:16:21.933Z,64256
2016-08-11T09:17:21.913Z,66368
2016-08-11T09:18:21.895Z,66848
2016-08-11T09:19:21.893Z,69472
2016-08-11T09:20:21.881Z,76576
2016-08-11T09:21:21.882Z,79232
2016-08-11T09:22:21.848Z,78464
2016-08-11T09:23:21.135Z,83456
2016-08-11T09:24:21.816Z,90912
2016-08-11T09:25:21.103Z,95648
2016-08-11T09:26:21.102Z,92992
2016-08-11T09:27:21.777Z,95616
2016-08-11T09:28:21.758Z,100192
2016-08-11T09:29:21.746Z,102592
2016-08-11T09:30:21.043Z,102816
2016-08-11T09:31:21.033Z,97920
2016-08-11T09:32:21.011Z,94592
2016-08-11T09:33:20.302Z,27168
2016-08-11T09:34:21.679Z,21600
2016-08-11T09:35:21.687Z,20000
2016-08-11T09:36:20.978Z,42848
2016-08-11T09:37:20.960Z,16792
2016-08-11T09:39:21.615Z,14528
2016-08-11T09:40:20.905Z,14748
2016-08-11T09:41:20.890Z,16108
2016-08-11T09:42:20.871Z,16916
2016-08-11T09:43:21.542Z,18304
2016-08-11T09:44:20.836Z,28832
2016-08-11T09:45:21.525Z,121536
2016-08-11T09:46:20.112Z,120320
2016-08-11T09:47:21.472Z,123520
2016-08-11T09:48:20.760Z,122816
2016-08-11T09:49:20.740Z,118272
2016-08-11T09:50:19.341Z,20288
2016-08-11T09:51:20.701Z,57216
2016-08-11T09:52:21.379Z,120544
2016-08-11T09:53:20.665Z,120960
2016-08-11T09:54:21.350Z,121440
2016-08-11T09:55:21.323Z,118144
2016-08-11T09:56:21.310Z,114880
2016-08-11T09:57:21.290Z,115424
2016-08-11T09:58:21.279Z,115200
2016-08-11T09:59:19.859Z,120192
2016-08-11T10:00:21.242Z,116736
2016-08-11T10:01:21.225Z,111136
2016-08-11T10:02:19.812Z,107104
2016-08-11T10:03:21.185Z,105504
2016-08-11T10:04:21.174Z,111488
2016-08-11T10:05:21.155Z,115520
2016-08-11T10:06:20.439Z,103232
2016-08-11T10:07:20.426Z,37248
2016-08-11T10:08:20.432Z,108640
2016-08-11T10:09:21.085Z,124416
2016-08-11T10:10:21.076Z,121696
2016-08-11T10:11:21.062Z,17060
2016-08-11T10:12:21.049Z,14504
2016-08-11T10:13:20.332Z,14720
2016-08-11T10:14:20.314Z,91456
2016-08-11T10:15:20.294Z,114080
2016-08-11T10:16:20.283Z,113440
2016-08-11T10:17:20.975Z,52544
2016-08-11T10:18:20.242Z,115808
2016-08-11T10:19:20.229Z,105760
2016-08-11T10:20:20.909Z,102272
2016-08-11T10:21:20.889Z,107232
2016-08-11T10:22:20.877Z,112288
2016-08-11T10:23:19.465Z,17004
2016-08-11T10:24:20.845Z,13444
2016-08-11T10:25:19.432Z,12836
2016-08-11T10:26:20.812Z,13848
2016-08-11T10:27:20.092Z,18272
2016-08-11T10:28:20.074Z,75456
2016-08-11T10:29:20.759Z,114048
2016-08-11T10:30:20.735Z,109664
2016-08-11T10:31:19.319Z,110912
2016-08-11T10:32:20.699Z,110016
2016-08-11T10:33:20.678Z,106016
2016-08-11T10:34:20.657Z,116096
2016-08-11T10:35:20.642Z,118592
2016-08-11T10:36:20.626Z,114976
2016-08-11T10:37:20.618Z,110848
2016-08-11T10:38:20.589Z,107328
2016-08-11T10:39:20.575Z,113696
2016-08-11T10:40:20.548Z,119072
2016-08-11T10:41:20.543Z,108352
2016-08-11T10:42:20.532Z,96128
2016-08-11T10:43:20.493Z,53792
2016-08-11T10:44:20.480Z,40064
2016-08-11T10:45:20.471Z,38944
2016-08-11T10:46:19.751Z,37920
2016-08-11T10:47:19.733Z,38592
2016-08-11T10:48:20.419Z,46048
2016-08-11T10:49:20.396Z,50144
2016-08-11T10:50:19.680Z,51168
2016-08-11T10:51:18.269Z,51904
2016-08-11T10:52:20.360Z,52416
2016-08-11T10:53:20.330Z,53088
2016-08-11T10:54:20.314Z,51328
2016-08-11T10:55:20.299Z,54432
2016-08-11T10:56:20.285Z,51456
2016-08-11T10:57:20.267Z,30240
2016-08-11T10:58:20.256Z,43136
2016-08-11T10:59:20.239Z,44256
2016-08-11T11:00:20.230Z,34528
2016-08-11T11:01:18.813Z,26720
2016-08-11T11:02:20.210Z,26176
2016-08-11T11:03:19.479Z,26240
2016-08-11T11:04:19.463Z,40352
2016-08-11T11:05:18.747Z,79968
2016-08-11T11:06:20.128Z,95776
2016-08-11T11:07:20.115Z,98752
2016-08-11T11:08:20.094Z,100800
2016-08-11T11:09:20.077Z,93984
2016-08-11T11:10:20.066Z,93632
2016-08-11T11:11:20.043Z,94880
2016-08-11T11:12:20.028Z,97504
2016-08-11T11:13:19.315Z,99072
2016-08-11T11:14:19.997Z,98656
2016-08-11T11:15:19.974Z,97056
2016-08-11T11:16:19.267Z,96544
2016-08-11T11:17:19.954Z,91968
2016-08-11T11:18:19.933Z,91008
2016-08-11T11:19:19.910Z,82272
2016-08-11T11:20:19.196Z,37568
2016-08-11T11:21:19.182Z,19648
2016-08-11T11:22:19.855Z,18048
2016-08-11T11:23:18.689Z,16804
2016-08-11T11:24:19.827Z,16136
2016-08-11T11:25:18.416Z,15612
2016-08-11T11:26:19.082Z,15268
2016-08-11T11:27:19.066Z,15012
2016-08-11T11:28:19.739Z,14616
2016-08-11T11:29:19.024Z,14600
2016-08-11T11:30:19.704Z,15220
2016-08-11T11:31:19.682Z,14704
2016-08-11T11:32:19.659Z,13736
2016-08-11T11:33:18.947Z,9832
2016-08-11T11:34:19.631Z,10616
2016-08-11T11:35:18.901Z,12048
2016-08-11T11:36:19.584Z,13224
2016-08-11T11:37:18.861Z,13196
2016-08-11T11:38:19.536Z,13268
2016-08-11T11:39:19.528Z,13352
2016-08-11T11:40:18.791Z,13260
2016-08-11T11:41:18.789Z,12640
2016-08-11T11:42:18.746Z,11568
2016-08-11T11:43:19.423Z,10752
2016-08-11T11:44:18.693Z,9804
2016-08-11T11:45:19.370Z,9260
2016-08-11T11:46:19.346Z,9024
2016-08-11T11:47:19.328Z,8576
2016-08-11T11:48:19.305Z,8220
2016-08-11T11:49:19.280Z,8040
2016-08-11T11:50:19.260Z,7960
2016-08-11T11:51:19.224Z,7928
2016-08-11T11:52:19.201Z,7868
2016-08-11T11:53:19.168Z,7880
2016-08-11T11:54:19.152Z,8012
2016-08-11T11:55:19.138Z,8536
2016-08-11T11:56:19.098Z,8836
2016-08-11T11:57:19.072Z,9072
2016-08-11T11:58:18.355Z,9308
2016-08-11T11:59:19.034Z,9328
2016-08-11T12:00:18.998Z,8884
2016-08-11T12:01:18.273Z,8480
2016-08-11T12:02:18.249Z,8444
2016-08-11T12:03:18.919Z,9092
2016-08-11T12:04:18.193Z,10196
2016-08-11T12:05:17.485Z,10148
2016-08-11T12:06:18.842Z,10328
2016-08-11T12:07:18.115Z,9588
2016-08-11T12:08:18.784Z,9168
2016-08-11T12:09:18.765Z,8848
2016-08-11T12:10:18.036Z,8808
2016-08-11T12:11:18.709Z,8900
2016-08-11T12:12:18.680Z,8756
2016-08-11T12:13:18.650Z,8348
2016-08-11T12:14:18.629Z,7864
2016-08-11T12:16:18.564Z,7448
2016-08-11T12:17:18.554Z,7324
2016-08-11T12:18:17.823Z,7080
2016-08-11T12:19:18.500Z,6812
2016-08-11T12:20:17.765Z,6568
2016-08-11T12:21:17.746Z,6468
2016-08-11T12:22:18.406Z,6440
2016-08-11T12:23:17.706Z,6348
2016-08-11T12:24:18.350Z,6224
2016-08-11T12:25:18.325Z,6092
2016-08-11T12:26:16.904Z,5988
2016-08-11T12:27:18.278Z,5916
2016-08-11T12:28:17.548Z,5852
2016-08-11T12:29:17.518Z,5824
2016-08-11T12:31:18.162Z,5752
2016-08-11T12:32:17.432Z,5824
2016-08-11T12:33:17.426Z,5764
2016-08-11T12:34:18.072Z,5708
2016-08-11T12:35:16.653Z,5620
2016-08-11T12:36:18.029Z,5624
2016-08-11T12:37:17.290Z,5604
2016-08-11T12:38:17.962Z,5608
2016-08-11T12:39:17.930Z,5636
2016-08-11T12:40:17.922Z,5624
2016-08-11T12:41:17.185Z,5564
2016-08-11T12:42:17.853Z,5528
2016-08-11T12:43:17.129Z,5588
2016-08-11T12:44:17.102Z,5672
2016-08-11T12:46:17.742Z,5528
2016-08-11T12:47:17.711Z,5496
2016-08-11T12:48:17.681Z,5528
2016-08-11T12:49:16.965Z,5484
2016-08-11T12:50:17.621Z,5420
2016-08-11T12:51:16.896Z,5352
2016-08-11T12:52:17.570Z,5340
2016-08-11T12:53:17.540Z,5320
2016-08-11T12:54:16.811Z,5340
2016-08-11T12:55:17.480Z,5288
2016-08-11T12:56:17.457Z,5188
2016-08-11T12:57:16.741Z,5108
2016-08-11T12:58:17.393Z,5052
2016-08-11T12:59:16.682Z,5012
2016-08-11T13:00:17.336Z,5000
2016-08-11T13:01:17.315Z,5004
2016-08-11T13:02:17.274Z,5036
2016-08-11T13:03:16.554Z,5064
2016-08-11T13:04:17.226Z,5016
2016-08-11T13:05:16.499Z,4984
2016-08-11T13:06:17.173Z,4976
2016-08-11T13:07:16.444Z,4892
2016-08-11T13:08:17.118Z,4848
2016-08-11T13:09:17.089Z,4788
2016-08-11T13:10:17.049Z,4748
2016-08-11T13:11:16.324Z,4740
2016-08-11T13:12:16.295Z,4716
2016-08-11T13:13:16.964Z,4708
2016-08-11T13:14:16.939Z,4700
2016-08-11T13:15:16.209Z,4692
2016-08-11T13:16:16.900Z,4684
2016-08-11T13:17:16.848Z,4656
2016-08-11T13:18:16.139Z,4628
2016-08-11T13:19:16.791Z,4604
2016-08-11T13:20:16.065Z,4600
2016-08-11T13:21:16.041Z,4556
2016-08-11T13:22:16.714Z,4544
2016-08-11T13:23:16.677Z,4552
2016-08-11T13:24:16.658Z,4604
2016-08-11T13:25:15.926Z,4576
2016-08-11T13:26:16.593Z,4560
2016-08-11T13:27:15.868Z,4532
2016-08-11T13:28:15.845Z,4504
2016-08-11T13:29:15.810Z,4468
2016-08-11T13:30:16.479Z,4448
2016-08-11T13:31:15.754Z,4464
2016-08-11T13:32:15.028Z,4408
2016-08-11T13:33:14.998Z,4476
2016-08-11T13:34:16.364Z,4392
2016-08-11T13:35:15.636Z,4376
2016-08-11T13:36:15.604Z,4400
2016-08-11T13:37:16.271Z,4344
2016-08-11T13:38:14.855Z,4328
2016-08-11T13:39:16.218Z,4272
2016-08-11T13:40:15.495Z,4280
2016-08-11T13:41:15.485Z,4284
2016-08-11T13:42:15.439Z,4256